A- A+ FrançaisEnglishEspañol中国

Services sur Internet Soldes sur Internet Des idées de cadeaux Météo Météo aéro

La météo à : Autours de vous Tarbes-Lourdes-PyrénéesFontenay-Le-ComteVitry-En-Artois Bordeaux-Leognan-Saucats

La météo aéronautique pour les pilotes, la préparation du vol avec les METAR (METeorological Aerodrome Report, message d'observation des conditions météorologiques pour l'aviation) et Les TAF (Terminal Aerodrome Forecast : message de prévision à court terme des conditions météorologiques pour l'aviation). Et les autres ressources comme les VAC (Visual Approch Chart) et les NOTAM (Notice To Airman) pour préprer les vols.

Aéroport Calgary Springbank (Canada) / OACI CYBW

L'altitude de l'aéroport Calgary Springbank est de 1201 m = 3940 ft. Il est situé à proximité de Calgary (Canada). La météo générale à 5 jours est disponible pour Pirmez Creek situé à 8 km.

METAR de l'aéroport Calgary Springbank - CYBW

CYBW 080200Z AUTO 06006KT 9SM -SN OVC015 M08/M10 A2978 RMK SLP157

Décodage du METAR de l'aéroport Calgary Springbank (CA)

METAR émis par CYBW le dimanche 8 décembre 2019 à 02:00 heure TU. C'est un METAR généré automatiquement, il y a 35 minutes.

La visibilité est de 14.5 km = 9 sm.

La température est de -8°C = 18 °F et le point rosée est de -10°C = 14 °F . Ce qui correspond à 86% d'humidité relative.

Le QNH est de 1008 hPa = 29.77 inHg

Vent de 6 kt = 11 km/h, orienté à 60°.

Nuages : Couverture nuageuse soudée à 1500 ft = 460 mètres.

-SN

RMK SLP157

TAF de l'aéroport Calgary Springbank - CYBW

CYBW 080007Z 0800/0805 06008KT 3SM -SN -FZDZ BR OVC005 TEMPO 0800/0802 6SM -SN OVC010 FM080200 06005KT 6SM -SN OVC010 TEMPO 0802/0805 2SM -SN BR OVC006 RMK FCST BASED ON AUTO OBS. NXT FCST WILL BE ISSUED AT 081245Z

CYBW 080007Z 0800/0805 06008KT 3SM faible SN faible FZDZ brume couverture nuageuse soudée à 005 temporairement 0800/0802 6SM faible SN couverture nuageuse soudée à 010 FM080200 06005KT 6SM faible SN couverture nuageuse soudée à 010 temporairement 0802/0805 2SM faible SN brume couverture nuageuse soudée à 006 remarques trombe ST BASED ON AUTO OBS. NXT trombe ST WILL BE ISSUED AT 081245Z

Aéroport à proximité de Calgary Springbank

Météo générale à 5 jours à Pirmez Creek (8 km)Aéroport Calgary (25 km)Aéroport Banff (82 km)Aéroport Red Deer Industrial (124 km)Aéroport Fairmount Hot Springs (136 km)Aéroport Sparwood Elk Valley (146 km)Aéroport Rocky Mountain House (152 km)

Vue aérienne de l'aéroport Calgary Springbank

NOTAM de l'aéroport Calgary Springbank

Les NOTAM sont fournis sans aucune garantie de leur actualité. Le pilote est le seul responsable de la vérification de sa validité avant de l'utiliser opérationnellement pour préparer un vol ou l'utiliser lors de sa navigation.

Pas de NOTAM

Sources des données